Impacts METAR Board INFO
IDs:

KPDX - Portland Intl Arpt, OR, US

Updated at: 1502 UTC 13 Dec 2017
Potential Impact None Slight Moderate High
Time13/03Z 13/04Z 13/05Z 13/06Z 13/07Z 13/08Z 13/09Z 13/10Z 13/11Z 13/12Z 13/13Z 13/14Z 13/15Z
VIS10 10 10 10 10 10 10 10 10 10 10 10 10
CIG250 75 75 170 -- 140 50 160 -- -- -- -- --
CoverBKNBKNBKNBKNCLROVCOVCBKNFEWFEWCLRFEWFEW
FltCatVFRVFRVFRVFRVFRVFRVFRVFRVFRVFRVFRVFRVFR
WX--------------------------
WDir1301301301204011014011014011050100
WSpd3 4 8 6 3 7 5 9 6 6 4 4 0
WGst-- -- -- -- -- -- -- -- -- -- -- -- --
Raw hourly METARs
KPDX 130253Z 13003KT 10SM SCT075 SCT140 BKN250 02/M02 A3040 RMK AO2 SLP294 T00221022 56009
KPDX 130353Z 13004KT 10SM BKN075 BKN140 03/M02 A3039 RMK AO2 SLP292 T00281022
KPDX 130453Z 13008KT 10SM BKN075 BKN140 03/M03 A3039 RMK AO2 SLP292 T00331028
KPDX 130553Z 12006KT 10SM FEW075 BKN170 03/M03 A3041 RMK AO2 SLP296 T00331028 10044 20022 53001
KPDX 130653Z 04003KT 10SM CLR 04/M02 A3042 RMK AO2 SLP302 T00391022
KPDX 130753Z 11007KT 10SM FEW090 SCT110 OVC140 03/M03 A3041 RMK AO2 SLP299 T00331028 400721039
KPDX 130853Z 14005KT 10SM BKN050 OVC180 03/M02 A3043 RMK AO2 SLP303 T00281022 51007
KPDX 130953Z 11009KT 10SM BKN160 03/M02 A3040 RMK AO2 SLP295 T00281022
KPDX 131053Z 14006KT 10SM FEW160 02/M03 A3042 RMK AO2 SLP301 T00221033
KPDX 131153Z 11006KT 10SM FEW160 01/M03 A3041 RMK AO2 SLP295 7//// T00111028 10039 20011 56007
KPDX 131253Z 05004KT 10SM CLR 01/M02 A3040 RMK AO2 SLP292 T00111022
KPDX 131353Z 01004KT 10SM FEW250 01/M02 A3040 RMK AO2 SLP293 T00111022
KPDX 131453Z 00000KT 10SM FEW250 M01/M03 A3040 RMK AO2 SLP293 T10061028 55002